Carlsbad, NM

6:59 PM MST on December 03, 2016 (GMT -0700)
2.1 NNW Downtown Carlsbad, NM | | Change Station

Elev 3158 ft 32.43 °N, 104.25 °W | Updated 1 second ago

Overcast
Overcast
39.2 °F
Feels Like 39 °F
N
2.0
Wind Variable Wind from NNW
Gusts 7.0 mph

Today
High -- | Low -- °F
--% Chance of Precip.
Yesterday
High -- | Low -- °F
Precip. -- in
Pressure 29.99 in
Visibility 10.0 miles
Clouds Overcast 1700 ft
Windchill 39 °F
Dew Point 37 °F
Humidity 93%
Rainfall 0.40 in
Snow Depth Not available.
6:42 AM 4:51 PM
Waxing Crescent, 18% visible
METAR KCNM 040153Z AUTO 31007KT 10SM OVC017 03/03 A3000 RMK AO2 SLP153 T00330033 TSNO
Pressure 29.99 in
Visibility 10.0 miles
Clouds Overcast 1700 ft
Windchill 39 °F
Dew Point 37 °F
Humidity 93%
Rainfall 0.40 in
Snow Depth Not available.
6:42 AM 4:51 PM
Waxing Crescent, 18% visible
METAR KCNM 040153Z AUTO 31007KT 10SM OVC017 03/03 A3000 RMK AO2 SLP153 T00330033 TSNO

10-Day Weather Forecast

Almanac

Astronomy

Dec. 03, 2016 Rise Set
Actual Time
Civil Twilight
Nautical Twilight
Astronomical Twilight
Moon
Length of Visible Light
Length of Day
Tomorrow will be .
, % of the Moon is Illuminated

Today's Extremes

State Highs State Lows

Community

WunderPhotos

Upload Photos

1,955,560 photos uploaded!

WunderBlog® & News

Nearby

Air Quality

  Air Quality AQ Index Pollutant
Not available.

Snow Depth

Station Depth Elevation

Earthquake Activity

City Distance Mag. Time & Date
Minimum magnitude displayed is 2.5.

Coastal Water Temperatures

Place Temperature

Stations

Nearby Weather Stations

Station Location Temp. Windchill Dew Point Humidity Wind Precip. Elev Updated Type
                   

Watches & Warnings

There are currently no watches in effect.